Time;durP1;ratioP1;P1;durP2;ratioP2;P2;SDS_P1;SDS_P2;PMS_P1;PMS_P2;Temp;Humidity;BMP_temperature;BMP_pressure;BME280_temperature;BME280_humidity;BME280_pressure;Samples;Min_cycle;Max_cycle;Signal;HPM_P1;HPM_P2
2023/03/08 00:02:00;;;;;;;0.20;0.20;;;;;;;18.72;39.82;99987.09;4991744;28;97006;-73
2023/03/08 00:04:26;;;;;;;0.20;0.20;;;;;;;18.71;39.38;99991.72;4992303;28;97040;-73
2023/03/08 00:06:53;;;;;;;0.20;0.20;;;;;;;18.70;39.50;99994.59;4990434;28;97672;-77
2023/03/08 00:09:19;;;;;;;0.10;0.10;;;;;;;18.68;39.96;99983.06;4988041;28;97930;-73
2023/03/08 00:11:47;;;;;;;0.15;0.10;;;;;;;18.69;39.60;99993.75;4990213;28;97081;-73
2023/03/08 00:14:13;;;;;;;0.28;0.20;;;;;;;18.71;39.76;99993.59;4992967;28;97478;-73
2023/03/08 00:16:40;;;;;;;0.38;0.20;;;;;;;18.69;39.72;99990.19;4991212;28;97552;-73
2023/03/08 00:19:07;;;;;;;0.10;0.10;;;;;;;18.67;39.65;99992.25;4992393;28;96761;-73
2023/03/08 00:21:33;;;;;;;0.20;0.10;;;;;;;18.68;39.67;99980.34;4992311;28;97979;-74
2023/03/08 00:24:00;;;;;;;0.10;0.10;;;;;;;18.68;39.80;99977.63;4991650;28;96775;-74
2023/03/08 00:26:26;;;;;;;0.10;0.10;;;;;;;18.67;39.69;99973.22;4996358;28;97381;-74
2023/03/08 00:28:53;;;;;;;0.13;0.13;;;;;;;18.68;39.47;99981.19;4993513;28;97808;-73
2023/03/08 00:31:19;;;;;;;0.28;0.10;;;;;;;18.70;39.80;99981.00;4996229;28;97201;-73
2023/03/08 00:33:46;;;;;;;0.35;0.22;;;;;;;18.71;39.40;99985.41;5008175;28;97213;-74
2023/03/08 00:36:17;;;;;;;0.10;0.10;;;;;;;18.69;39.32;99987.47;4992768;28;96687;-73
2023/03/08 00:38:45;;;;;;;0.30;0.20;;;;;;;18.67;39.61;99974.06;4993729;28;97758;-76
2023/03/08 00:41:13;;;;;;;0.10;0.10;;;;;;;18.69;39.46;99972.00;4993436;28;96653;-74
2023/03/08 00:43:41;;;;;;;0.10;0.10;;;;;;;18.68;39.41;99973.03;4992314;28;96721;-73
2023/03/08 00:46:07;;;;;;;0.63;0.30;;;;;;;18.68;39.34;99973.03;4991103;28;99518;-74
2023/03/08 00:48:34;;;;;;;0.10;0.10;;;;;;;18.69;39.81;99976.59;4991862;28;99625;-74
2023/03/08 00:51:01;;;;;;;0.10;0.10;;;;;;;18.67;39.55;99974.06;4995833;28;96620;-76
2023/03/08 00:53:28;;;;;;;0.47;0.20;;;;;;;18.67;39.79;99970.50;4993427;28;97165;-73
2023/03/08 00:55:56;;;;;;;0.30;0.20;;;;;;;18.63;39.42;99971.88;4991901;28;99239;-75
2023/03/08 00:58:26;;;;;;;0.10;0.10;;;;;;;18.64;39.83;99976.28;4991740;28;98771;-73
2023/03/08 01:00:53;;;;;;;0.28;0.10;;;;;;;18.64;39.75;99974.41;5004082;28;97395;-73
2023/03/08 01:03:21;;;;;;;0.40;0.20;;;;;;;18.66;39.80;99971.53;4996863;28;97703;-73
2023/03/08 01:05:52;;;;;;;0.30;0.20;;;;;;;18.65;39.83;99965.25;4992211;28;97329;-73
2023/03/08 01:08:20;;;;;;;0.25;0.20;;;;;;;18.67;39.58;99967.78;4991318;28;97449;-74
2023/03/08 01:10:56;;;;;;;0.20;0.20;;;;;;;18.66;39.67;99958.78;4992268;28;96712;-74
2023/03/08 01:13:25;;;;;;;0.20;0.20;;;;;;;18.66;39.52;99964.22;4992790;28;97187;-73
2023/03/08 01:15:51;;;;;;;0.10;0.10;;;;;;;18.64;39.75;99960.81;4990717;28;98609;-73
2023/03/08 01:18:18;;;;;;;0.10;0.10;;;;;;;18.65;39.63;99957.06;4991505;28;99408;-73
2023/03/08 01:21:03;;;;;;;0.28;0.20;;;;;;;18.67;39.42;99949.59;4993166;28;97351;-75
2023/03/08 01:23:30;;;;;;;0.20;0.20;;;;;;;18.66;39.63;99955.19;4993023;28;96907;-74
2023/03/08 01:26:10;;;;;;;0.20;0.20;;;;;;;18.63;39.73;99941.97;4992104;28;97652;-73
2023/03/08 01:28:37;;;;;;;0.10;0.10;;;;;;;18.62;39.46;99940.28;4991455;28;98423;-73
2023/03/08 01:31:10;;;;;;;0.10;0.10;;;;;;;18.62;39.74;99935.69;4991243;28;97204;-73
2023/03/08 01:33:39;;;;;;;0.30;0.20;;;;;;;18.62;39.87;99929.41;4973676;28;96697;-73
2023/03/08 01:36:08;;;;;;;0.10;0.10;;;;;;;18.63;39.82;99929.22;4992152;28;97695;-74
2023/03/08 01:38:34;;;;;;;0.57;0.20;;;;;;;18.63;39.40;99925.66;4990709;28;99096;-74
2023/03/08 01:41:04;;;;;;;0.10;0.10;;;;;;;18.63;39.83;99926.50;4992331;28;96860;-73
2023/03/08 01:43:34;;;;;;;0.20;0.10;;;;;;;18.65;39.65;99910.84;4991201;28;97289;-73
2023/03/08 01:46:06;;;;;;;0.43;0.17;;;;;;;18.64;39.51;99908.31;4991035;28;97520;-73
2023/03/08 01:48:43;;;;;;;0.30;0.20;;;;;;;18.64;40.22;99913.75;4991191;28;98841;-75
2023/03/08 01:51:20;;;;;;;0.10;0.10;;;;;;;18.62;39.48;99904.94;4988475;28;96783;-74
2023/03/08 01:53:47;;;;;;;0.10;0.10;;;;;;;18.61;39.72;99900.47;4993013;28;97205;-73
2023/03/08 01:56:17;;;;;;;0.10;0.10;;;;;;;18.64;39.76;99897.44;4991002;28;96880;-74
2023/03/08 01:58:47;;;;;;;0.28;0.17;;;;;;;18.63;39.57;99895.75;4990694;28;100572;-75
2023/03/08 02:01:14;;;;;;;0.30;0.20;;;;;;;18.62;39.36;99891.34;4992128;28;96698;-73
2023/03/08 02:03:44;;;;;;;0.35;0.20;;;;;;;18.61;39.36;99882.31;4974033;28;96785;-74
2023/03/08 02:06:12;;;;;;;0.10;0.10;;;;;;;18.64;39.42;99886.56;4987793;28;99290;-74
2023/03/08 02:08:38;;;;;;;0.10;0.10;;;;;;;18.62;39.33;99875.00;5006062;28;98836;-73
2023/03/08 02:11:06;;;;;;;0.20;0.20;;;;;;;18.62;39.42;99885.88;4990453;28;96827;-74
2023/03/08 02:13:32;;;;;;;0.13;0.10;;;;;;;18.62;39.49;99880.44;4992551;28;96682;-74
2023/03/08 02:16:03;;;;;;;0.10;0.10;;;;;;;18.62;39.44;99880.44;4990432;28;96797;-73
2023/03/08 02:18:30;;;;;;;0.20;0.10;;;;;;;18.61;39.63;99884.16;4987808;28;99976;-73
2023/03/08 02:20:58;;;;;;;0.28;0.10;;;;;;;18.61;39.71;99878.72;4990690;28;96753;-73
2023/03/08 02:23:25;;;;;;;0.10;0.10;;;;;;;18.61;39.71;99867.84;4990514;28;97446;-74
2023/03/08 02:25:54;;;;;;;0.47;0.25;;;;;;;18.60;39.76;99863.44;4991528;28;97015;-73
2023/03/08 02:28:23;;;;;;;0.20;0.15;;;;;;;18.63;39.30;99857.66;4990101;28;100377;-74
2023/03/08 02:30:52;;;;;;;0.40;0.20;;;;;;;18.62;39.34;99851.38;4987921;28;96831;-74
2023/03/08 02:33:18;;;;;;;0.20;0.20;;;;;;;18.61;39.48;99859.69;4990065;28;96918;-74
2023/03/08 02:35:45;;;;;;;0.22;0.10;;;;;;;18.60;39.50;99852.56;4991971;28;97260;-75
2023/03/08 02:38:14;;;;;;;0.10;0.10;;;;;;;18.59;39.62;99851.72;4989939;28;100390;-73
2023/03/08 02:40:41;;;;;;;0.20;0.20;;;;;;;18.60;39.82;99841.69;4994552;28;97030;-73
2023/03/08 02:43:08;;;;;;;0.15;0.10;;;;;;;18.60;39.52;99844.41;4990544;28;97450;-73
2023/03/08 02:45:38;;;;;;;0.28;0.10;;;;;;;18.59;39.45;99840.00;4991752;28;97279;-73
2023/03/08 02:48:06;;;;;;;0.13;0.10;;;;;;;18.57;39.79;99842.88;4989936;28;99184;-74
2023/03/08 02:50:35;;;;;;;0.30;0.15;;;;;;;18.59;39.79;99840.00;4989454;28;96935;-73
2023/03/08 02:53:03;;;;;;;0.10;0.10;;;;;;;18.58;39.60;99841.88;4989760;28;96859;-73
2023/03/08 02:55:34;;;;;;;0.10;0.10;;;;;;;18.57;39.42;99828.44;4990116;28;100597;-75
2023/03/08 02:58:07;;;;;;;0.20;0.10;;;;;;;18.58;39.76;99827.41;4989816;28;98544;-74
2023/03/08 03:00:34;;;;;;;0.08;0.08;;;;;;;18.59;39.43;99823.69;4988102;28;96919;-73
2023/03/08 03:03:01;;;;;;;0.35;0.20;;;;;;;18.59;39.56;99831.84;4990712;28;96744;-73
2023/03/08 03:05:27;;;;;;;0.30;0.20;;;;;;;18.59;39.34;99823.69;4991316;28;96699;-73
2023/03/08 03:07:57;;;;;;;0.10;0.10;;;;;;;18.59;39.44;99820.97;4990200;28;99637;-73
2023/03/08 03:10:26;;;;;;;0.10;0.10;;;;;;;18.58;39.47;99824.69;4991640;28;96900;-73
2023/03/08 03:12:53;;;;;;;0.28;0.15;;;;;;;18.58;39.88;99822.84;4988977;28;97085;-73
2023/03/08 03:15:23;;;;;;;0.15;0.10;;;;;;;18.57;39.82;99825.72;4989174;28;97765;-74
2023/03/08 03:17:53;;;;;;;0.15;0.15;;;;;;;18.56;39.73;99824.03;4973824;28;96740;-73
2023/03/08 03:20:20;;;;;;;0.10;0.10;;;;;;;18.57;39.45;99823.00;4989720;28;96791;-74
2023/03/08 03:22:47;;;;;;;0.20;0.17;;;;;;;18.59;39.66;99820.97;4989159;28;97315;-76
2023/03/08 03:25:14;;;;;;;0.20;0.20;;;;;;;18.58;39.50;99813.81;4989572;28;97085;-74
2023/03/08 03:27:44;;;;;;;0.10;0.10;;;;;;;18.58;39.73;99813.81;4990536;28;97749;-74
2023/03/08 03:30:11;;;;;;;0.40;0.20;;;;;;;18.59;39.84;99807.38;4976317;28;96602;-73
2023/03/08 03:32:38;;;;;;;0.30;0.20;;;;;;;18.59;39.44;99801.94;4993333;28;96933;-73
2023/03/08 03:35:06;;;;;;;0.40;0.20;;;;;;;18.58;39.78;99800.22;4992383;28;99136;-74
2023/03/08 03:37:35;;;;;;;0.38;0.30;;;;;;;18.57;39.63;99809.41;4983454;28;100644;-73
2023/03/08 03:40:03;;;;;;;0.10;0.10;;;;;;;18.56;39.70;99794.13;4992500;28;97152;-74
2023/03/08 03:42:30;;;;;;;0.30;0.20;;;;;;;18.55;39.77;99792.41;4993041;28;96939;-75
2023/03/08 03:45:04;;;;;;;0.15;0.10;;;;;;;18.54;39.65;99779.84;4990375;28;97045;-75
2023/03/08 03:47:31;;;;;;;0.10;0.10;;;;;;;18.54;39.41;99764.38;4989715;28;97682;-73
2023/03/08 03:50:01;;;;;;;0.15;0.10;;;;;;;18.55;39.58;99757.91;4976319;28;97260;-73
2023/03/08 03:52:35;;;;;;;0.37;0.30;;;;;;;18.57;39.61;99752.28;4990730;28;96829;-73
2023/03/08 03:55:04;;;;;;;0.20;0.20;;;;;;;18.57;39.72;99755.00;4989007;28;99347;-73
2023/03/08 03:57:31;;;;;;;0.50;0.20;;;;;;;18.57;39.69;99755.00;4990494;28;99135;-73
2023/03/08 03:59:58;;;;;;;0.30;0.20;;;;;;;18.58;39.50;99751.25;4991990;28;97205;-74
2023/03/08 04:02:27;;;;;;;0.20;0.20;;;;;;;18.57;39.42;99749.56;4990598;28;97907;-73
2023/03/08 04:04:57;;;;;;;0.25;0.20;;;;;;;18.57;39.74;99749.56;5003771;28;100328;-73
2023/03/08 04:07:27;;;;;;;1.27;0.85;;;;;;;18.58;39.71;99753.97;4992059;28;100334;-74
2023/03/08 04:09:56;;;;;;;0.43;0.20;;;;;;;18.61;39.36;99748.19;4988303;28;96939;-73
2023/03/08 04:12:23;;;;;;;0.20;0.15;;;;;;;18.57;39.24;99739.53;4991711;28;96953;-73
2023/03/08 04:14:52;;;;;;;0.20;0.20;;;;;;;18.57;39.65;99744.13;4991837;28;100469;-73
2023/03/08 04:17:20;;;;;;;0.30;0.20;;;;;;;18.55;39.65;99744.31;4991793;28;99809;-74
2023/03/08 04:19:50;;;;;;;0.15;0.15;;;;;;;18.54;39.71;99739.06;4992032;28;96737;-73
2023/03/08 04:22:18;;;;;;;0.10;0.10;;;;;;;18.51;39.62;99728.56;4992229;28;97474;-73
2023/03/08 04:24:50;;;;;;;0.25;0.25;;;;;;;18.53;39.35;99729.22;4991526;28;100094;-73
2023/03/08 04:27:23;;;;;;;0.30;0.20;;;;;;;18.54;39.36;99720.88;4992119;28;98713;-74
2023/03/08 04:29:51;;;;;;;0.10;0.10;;;;;;;18.53;39.61;99711.03;4991792;28;97135;-73
2023/03/08 04:32:18;;;;;;;0.52;0.10;;;;;;;18.54;39.51;99701.00;4994854;28;96719;-73
2023/03/08 04:34:49;;;;;;;0.20;0.20;;;;;;;18.55;39.67;99705.41;4990784;28;97069;-73
2023/03/08 04:37:20;;;;;;;0.20;0.10;;;;;;;18.55;39.63;99705.41;4991936;28;97135;-73
2023/03/08 04:39:51;;;;;;;0.20;0.10;;;;;;;18.55;39.60;99702.69;4975018;28;96710;-75
2023/03/08 04:42:18;;;;;;;0.40;0.20;;;;;;;18.55;39.36;99698.09;4992161;28;97002;-73
2023/03/08 04:44:45;;;;;;;0.20;0.20;;;;;;;18.56;39.33;99696.22;4990700;28;98120;-73
2023/03/08 04:47:16;;;;;;;0.13;0.10;;;;;;;18.54;39.67;99690.13;4990010;28;98417;-74
2023/03/08 04:49:44;;;;;;;0.20;0.20;;;;;;;18.54;39.84;99690.97;4992167;28;96660;-73
2023/03/08 04:52:11;;;;;;;0.32;0.20;;;;;;;18.52;39.26;99684.88;4990689;28;97180;-74
2023/03/08 04:54:39;;;;;;;0.30;0.20;;;;;;;18.52;39.28;99684.03;4992522;28;96607;-73
2023/03/08 04:57:17;;;;;;;0.20;0.20;;;;;;;18.51;39.68;99685.06;4993565;28;97090;-74
2023/03/08 04:59:47;;;;;;;0.20;0.20;;;;;;;18.49;39.71;99670.81;4992054;28;96847;-73
2023/03/08 05:02:14;;;;;;;0.73;0.20;;;;;;;18.49;39.49;99668.09;4992608;28;96990;-74
2023/03/08 05:04:41;;;;;;;0.20;0.20;;;;;;;18.53;39.86;99670.25;4991419;28;98613;-75
2023/03/08 05:07:08;;;;;;;0.25;0.20;;;;;;;18.54;39.77;99663.78;4990733;28;97853;-74
2023/03/08 05:09:35;;;;;;;0.32;0.20;;;;;;;18.55;39.36;99662.75;4990912;28;96557;-73
2023/03/08 05:12:02;;;;;;;0.20;0.20;;;;;;;18.53;39.29;99647.66;4993172;28;96974;-74
2023/03/08 05:14:48;;;;;;;0.20;0.20;;;;;;;18.52;39.60;99648.69;4976380;28;99427;-73
2023/03/08 05:17:15;;;;;;;0.13;0.10;;;;;;;18.51;39.68;99642.41;4987530;28;98864;-73
2023/03/08 05:19:41;;;;;;;0.20;0.20;;;;;;;18.50;39.44;99635.28;4991358;28;96984;-73
2023/03/08 05:22:10;;;;;;;0.55;0.20;;;;;;;18.48;39.61;99636.50;4974597;28;98017;-73
2023/03/08 05:24:43;;;;;;;0.35;0.20;;;;;;;18.49;39.44;99632.75;4990579;28;100223;-73
2023/03/08 05:27:11;;;;;;;0.20;0.20;;;;;;;18.47;39.31;99629.38;4990102;28;98559;-73
2023/03/08 05:29:38;;;;;;;0.25;0.20;;;;;;;18.48;39.57;99623.75;4991831;28;97416;-73
2023/03/08 05:32:05;;;;;;;0.20;0.20;;;;;;;18.50;39.54;99621.69;4990426;28;96902;-73
2023/03/08 05:34:32;;;;;;;0.20;0.20;;;;;;;18.47;39.46;99604.91;4990459;28;99265;-73
2023/03/08 05:37:00;;;;;;;0.38;0.10;;;;;;;18.49;39.44;99606.41;4990921;28;96763;-73
2023/03/08 05:39:29;;;;;;;0.20;0.20;;;;;;;18.50;39.68;99593.66;4991073;28;96743;-74
2023/03/08 05:42:07;;;;;;;0.20;0.20;;;;;;;18.51;39.51;99596.19;4990946;28;96836;-74
2023/03/08 05:44:38;;;;;;;0.30;0.20;;;;;;;18.50;39.35;99588.22;4990208;28;98766;-73
2023/03/08 05:47:06;;;;;;;0.20;0.20;;;;;;;18.49;39.49;99578.38;4991054;28;99190;-73
2023/03/08 05:49:32;;;;;;;0.22;0.20;;;;;;;18.48;39.62;99573.97;4990800;28;96887;-75
2023/03/08 05:51:59;;;;;;;0.28;0.20;;;;;;;18.50;39.35;99575.47;4989900;28;96762;-73
2023/03/08 05:54:27;;;;;;;0.20;0.10;;;;;;;18.49;39.71;99564.78;4990410;28;99541;-74
2023/03/08 05:56:58;;;;;;;0.20;0.20;;;;;;;18.47;39.63;99564.13;4986672;28;98870;-73
2023/03/08 05:59:25;;;;;;;0.30;0.20;;;;;;;18.46;39.79;99557.88;4987944;28;97032;-73
2023/03/08 06:01:56;;;;;;;0.20;0.20;;;;;;;18.46;39.53;99554.31;4987386;28;96723;-73
2023/03/08 06:04:31;;;;;;;0.22;0.20;;;;;;;18.45;39.40;99549.91;4987709;28;100182;-74
2023/03/08 06:06:58;;;;;;;0.35;0.28;;;;;;;18.49;39.60;99543.03;4992170;28;98180;-73
2023/03/08 06:09:31;;;;;;;0.43;0.28;;;;;;;18.46;39.50;99532.56;4991053;28;96777;-74
2023/03/08 06:11:58;;;;;;;0.43;0.20;;;;;;;18.46;39.49;99533.41;4989776;28;96983;-74
2023/03/08 06:14:24;;;;;;;0.20;0.20;;;;;;;18.47;39.34;99534.25;4989740;28;100279;-73
2023/03/08 06:16:51;;;;;;;0.20;0.13;;;;;;;18.49;39.75;99532.16;4988991;28;97062;-74
2023/03/08 06:19:22;;;;;;;0.22;0.20;;;;;;;18.48;39.62;99522.31;4985637;28;97141;-73
2023/03/08 06:21:51;;;;;;;0.35;0.20;;;;;;;18.48;39.32;99519.59;4988185;28;97267;-73
2023/03/08 06:24:17;;;;;;;0.28;0.20;;;;;;;18.49;39.43;99515.84;4987515;28;96845;-74
2023/03/08 06:26:44;;;;;;;0.10;0.10;;;;;;;18.48;39.69;99525.88;4989110;28;99726;-73
2023/03/08 06:29:13;;;;;;;0.20;0.20;;;;;;;18.49;39.60;99524.84;4985101;28;96939;-74
2023/03/08 06:31:40;;;;;;;0.30;0.30;;;;;;;18.48;39.33;99522.31;4990374;28;97159;-73
2023/03/08 06:34:07;;;;;;;0.40;0.30;;;;;;;18.47;39.49;99526.94;4990046;28;100574;-74
2023/03/08 06:36:34;;;;;;;0.30;0.28;;;;;;;18.46;39.75;99529.84;4990207;28;98503;-73
2023/03/08 06:39:00;;;;;;;0.30;0.20;;;;;;;18.45;39.63;99520.84;4986590;28;97104;-73
2023/03/08 06:41:28;;;;;;;0.10;0.10;;;;;;;18.49;39.60;99524.84;4991907;28;96661;-74
2023/03/08 06:43:57;;;;;;;0.30;0.20;;;;;;;18.51;39.38;99524.66;4990799;28;100395;-74
2023/03/08 06:46:24;;;;;;;0.20;0.20;;;;;;;18.49;39.23;99521.28;4990295;28;99673;-74
2023/03/08 06:48:51;;;;;;;0.30;0.20;;;;;;;18.49;39.56;99518.56;4988850;28;96974;-74
2023/03/08 06:51:19;;;;;;;0.30;0.20;;;;;;;18.49;39.68;99516.69;4974690;28;97498;-73
2023/03/08 06:53:46;;;;;;;0.40;0.30;;;;;;;18.49;39.36;99516.69;4985861;28;96810;-73
2023/03/08 06:56:17;;;;;;;0.20;0.20;;;;;;;18.49;39.74;99526.72;4988349;28;96807;-74
2023/03/08 06:58:43;;;;;;;0.50;0.30;;;;;;;18.50;39.69;99514.81;4987437;28;97407;-74
2023/03/08 07:01:11;;;;;;;0.10;0.10;;;;;;;18.50;39.58;99514.81;4990012;28;97072;-73
2023/03/08 07:03:38;;;;;;;0.40;0.30;;;;;;;18.50;39.32;99514.81;4993379;28;97674;-74
2023/03/08 07:06:07;;;;;;;0.22;0.22;;;;;;;18.45;39.46;99515.41;4995796;28;97217;-73
2023/03/08 07:08:35;;;;;;;0.30;0.25;;;;;;;18.46;39.74;99514.38;4991959;28;96784;-76
2023/03/08 07:11:02;;;;;;;0.50;0.20;;;;;;;18.45;39.24;99511.84;4980302;28;96757;-74
2023/03/08 07:13:29;;;;;;;0.30;0.20;;;;;;;18.46;39.55;99510.81;4991971;28;97596;-74
2023/03/08 07:15:56;;;;;;;0.22;0.20;;;;;;;18.47;39.62;99507.91;4993056;28;96830;-73
2023/03/08 07:18:23;;;;;;;0.15;0.10;;;;;;;18.50;39.42;99506.66;4995108;28;96831;-74
2023/03/08 07:20:55;;;;;;;0.20;0.20;;;;;;;18.49;39.30;99516.69;4995495;28;96764;-73
2023/03/08 07:23:22;;;;;;;0.30;0.22;;;;;;;18.50;39.62;99512.09;4990960;28;98150;-73
2023/03/08 07:25:49;;;;;;;0.20;0.20;;;;;;;18.48;39.54;99511.44;4992747;28;99403;-74
2023/03/08 07:28:15;;;;;;;0.20;0.20;;;;;;;18.47;39.54;99510.63;4989730;28;98413;-73
2023/03/08 07:30:47;;;;;;;0.40;0.20;;;;;;;18.45;39.19;99501.81;4990006;28;96701;-74
2023/03/08 07:33:15;;;;;;;0.30;0.30;;;;;;;18.46;39.30;99500.78;4988101;28;97882;-73
2023/03/08 07:35:41;;;;;;;0.17;0.17;;;;;;;18.48;39.41;99490.53;4983567;28;97686;-72
2023/03/08 07:38:10;;;;;;;0.28;0.20;;;;;;;18.48;39.25;99489.69;4988409;28;96840;-72
2023/03/08 07:40:36;;;;;;;0.28;0.20;;;;;;;18.45;39.62;99482.78;4986553;28;97067;-72
2023/03/08 07:43:03;;;;;;;0.20;0.20;;;;;;;18.46;39.61;99483.63;4992603;28;100829;-73
2023/03/08 07:45:52;;;;;;;0.28;0.20;;;;;;;18.45;39.46;99481.94;4991970;28;97178;-72
2023/03/08 07:48:19;;;;;;;0.25;0.20;;;;;;;18.45;39.21;99477.34;4993910;28;96823;-73
2023/03/08 07:50:45;;;;;;;0.30;0.20;;;;;;;18.45;39.52;99476.50;4995172;28;97234;-73
2023/03/08 07:53:12;;;;;;;0.30;0.20;;;;;;;18.45;39.43;99473.78;4993059;28;97645;-72
2023/03/08 07:55:38;;;;;;;0.13;0.13;;;;;;;18.46;39.27;99470.88;4992317;28;97592;-73
2023/03/08 07:58:05;;;;;;;0.10;0.10;;;;;;;18.46;39.39;99468.16;4989015;28;96996;-74
2023/03/08 08:00:32;;;;;;;0.40;0.30;;;;;;;18.46;39.49;99470.03;4989856;28;96715;-73
2023/03/08 08:02:58;;;;;;;0.40;0.30;;;;;;;18.43;39.25;99463.94;4993842;28;96816;-74
2023/03/08 08:05:25;;;;;;;0.30;0.30;;;;;;;18.45;39.37;99468.34;4994483;28;96728;-73
2023/03/08 08:07:51;;;;;;;0.30;0.20;;;;;;;18.49;39.49;99464.19;4994964;28;96716;-73
2023/03/08 08:10:18;;;;;;;0.20;0.20;;;;;;;18.48;39.33;99465.25;4992881;28;97165;-73
2023/03/08 08:12:44;;;;;;;0.20;0.17;;;;;;;18.48;39.17;99465.25;4987607;28;96995;-73
2023/03/08 08:15:11;;;;;;;0.40;0.22;;;;;;;18.46;39.46;99454.56;4993770;28;97411;-72
2023/03/08 08:17:38;;;;;;;0.28;0.20;;;;;;;18.45;39.26;99452.88;4993010;28;97886;-73
2023/03/08 08:20:08;;;;;;;0.38;0.38;;;;;;;18.43;39.50;99450.34;4995020;28;97108;-73
2023/03/08 08:22:36;;;;;;;0.25;0.20;;;;;;;18.43;39.40;99449.50;4993626;28;97708;-73
2023/03/08 08:25:06;;;;;;;0.20;0.20;;;;;;;18.43;39.34;99444.06;4988244;28;96730;-73
2023/03/08 08:27:34;;;;;;;0.40;0.30;;;;;;;18.43;39.37;99444.91;4985496;28;97886;-73
2023/03/08 08:30:01;;;;;;;0.20;0.20;;;;;;;18.43;39.42;99444.91;4990867;28;97534;-73
2023/03/08 08:32:28;;;;;;;0.20;0.20;;;;;;;18.46;39.51;99445.56;4992647;28;97457;-74
2023/03/08 08:34:54;;;;;;;0.10;0.10;;;;;;;18.47;39.20;99439.09;4994313;28;97077;-73
2023/03/08 08:37:21;;;;;;;0.22;0.20;;;;;;;18.46;39.43;99437.41;4990280;28;96671;-74
2023/03/08 08:39:48;;;;;;;0.22;0.20;;;;;;;18.45;39.23;99428.41;4988260;28;97581;-73
2023/03/08 08:42:14;;;;;;;0.20;0.10;;;;;;;18.46;39.61;99423.81;4992158;28;97909;-73
2023/03/08 08:44:41;;;;;;;0.40;0.20;;;;;;;18.46;39.37;99421.09;4981309;28;98025;-73
2023/03/08 08:47:07;;;;;;;0.38;0.20;;;;;;;18.46;39.17;99416.50;4990023;28;96655;-73
2023/03/08 08:49:34;;;;;;;0.38;0.28;;;;;;;18.44;39.18;99415.84;4992882;28;96697;-74
2023/03/08 08:52:00;;;;;;;0.20;0.20;;;;;;;18.43;39.50;99417.72;4991159;28;97607;-73
2023/03/08 08:54:27;;;;;;;0.30;0.20;;;;;;;18.44;39.59;99402.25;4993918;28;97310;-73
2023/03/08 08:56:54;;;;;;;0.30;0.30;;;;;;;18.46;39.34;99399.34;4992905;28;96732;-73
2023/03/08 08:59:20;;;;;;;0.22;0.20;;;;;;;18.46;39.51;99402.06;4993943;28;96800;-73
2023/03/08 09:01:47;;;;;;;0.10;0.10;;;;;;;18.43;39.08;99404.13;4992668;28;97686;-73
2023/03/08 09:04:15;;;;;;;0.20;0.17;;;;;;;18.44;39.21;99407.69;4993603;28;97654;-73
2023/03/08 09:06:42;;;;;;;0.30;0.20;;;;;;;18.45;39.45;99403.09;4994272;28;96731;-74
2023/03/08 09:09:09;;;;;;;0.40;0.20;;;;;;;18.48;39.31;99402.72;4993746;28;96780;-73
2023/03/08 09:11:35;;;;;;;0.30;0.30;;;;;;;18.47;39.36;99401.03;4985419;28;98801;-73
2023/03/08 09:14:18;;;;;;;0.20;0.20;;;;;;;18.47;39.38;99406.47;4989094;28;97596;-74
2023/03/08 09:16:45;;;;;;;0.35;0.25;;;;;;;18.46;39.20;99408.34;4988679;28;96623;-73
2023/03/08 09:19:11;;;;;;;0.13;0.10;;;;;;;18.47;39.57;99409.19;4994074;28;97003;-73
2023/03/08 09:21:38;;;;;;;0.30;0.30;;;;;;;18.47;39.21;99401.03;4985437;28;97451;-73
2023/03/08 09:24:05;;;;;;;0.30;0.28;;;;;;;18.45;39.34;99409.38;4989740;28;97555;-74
2023/03/08 09:26:34;;;;;;;0.30;0.20;;;;;;;18.45;39.56;99408.53;4992469;28;96712;-73
2023/03/08 09:29:04;;;;;;;0.30;0.20;;;;;;;18.47;39.54;99404.59;4986032;28;97538;-73
2023/03/08 09:31:33;;;;;;;0.45;0.22;;;;;;;18.42;39.39;99388.88;4974997;28;98812;-74
2023/03/08 09:34:03;;;;;;;0.15;0.13;;;;;;;18.42;39.27;99375.28;4990468;28;96750;-73
2023/03/08 09:36:30;;;;;;;0.35;0.20;;;;;;;18.41;39.25;99360.00;4987976;28;97766;-73
2023/03/08 09:38:56;;;;;;;0.20;0.20;;;;;;;18.45;39.19;99356.88;4986684;28;96886;-73
2023/03/08 09:41:48;;;;;;;0.30;0.30;;;;;;;18.45;39.54;99348.72;4985874;28;97361;-74
2023/03/08 09:44:42;;;;;;;0.20;0.20;;;;;;;18.42;39.33;99352.69;4976633;28;97482;-73
2023/03/08 09:47:31;;;;;;;0.30;0.28;;;;;;;18.42;39.21;99358.97;4985897;28;97094;-73
2023/03/08 09:50:10;;;;;;;0.40;0.20;;;;;;;18.41;39.46;99332.81;4992502;28;97420;-73
2023/03/08 09:53:09;;;;;;;0.40;0.20;;;;;;;18.42;39.52;99336.38;4990031;28;96675;-73
2023/03/08 09:55:45;;;;;;;0.22;0.20;;;;;;;18.42;39.34;99334.50;4983613;28;97769;-73
2023/03/08 09:58:30;;;;;;;0.20;0.20;;;;;;;18.39;39.36;99334.88;4984831;28;97181;-73
2023/03/08 10:01:05;;;;;;;0.30;0.30;;;;;;;18.41;39.62;99323.81;4990383;28;96789;-73
2023/03/08 10:03:59;;;;;;;0.38;0.30;;;;;;;18.43;39.29;99319.03;4991792;28;97553;-73
2023/03/08 10:07:09;;;;;;;0.28;0.20;;;;;;;18.39;39.38;99307.72;4989844;28;96719;-73
2023/03/08 10:09:40;;;;;;;0.30;0.20;;;;;;;18.40;39.29;99313.97;4983717;28;99276;-73
2023/03/08 10:12:22;;;;;;;0.20;0.20;;;;;;;18.43;39.47;99329.91;4988132;28;96981;-73
2023/03/08 10:14:53;;;;;;;0.20;0.20;;;;;;;18.43;39.19;99309.00;4986728;28;97361;-74
2023/03/08 10:17:24;;;;;;;0.30;0.25;;;;;;;18.48;39.39;99299.41;4985766;28;96784;-74
2023/03/08 10:20:05;;;;;;;0.30;0.25;;;;;;;18.46;39.51;99302.31;4989042;28;97638;-72
2023/03/08 10:22:37;;;;;;;0.30;0.20;;;;;;;18.49;39.18;99301.09;4983298;28;97685;-74
2023/03/08 10:25:20;;;;;;;0.20;0.20;;;;;;;18.51;39.21;99312.59;4986790;28;96733;-74
2023/03/08 10:27:50;;;;;;;0.30;0.28;;;;;;;18.50;39.50;99314.47;4991056;28;98655;-73
2023/03/08 10:30:21;;;;;;;0.30;0.30;;;;;;;18.48;39.28;99311.13;4992321;28;96986;-73
2023/03/08 10:32:50;;;;;;;0.40;0.40;;;;;;;18.49;39.22;99326.41;4991825;28;96922;-72
2023/03/08 10:35:29;;;;;;;0.30;0.30;;;;;;;18.49;39.55;99328.28;4981284;28;98183;-73
2023/03/08 10:37:55;;;;;;;0.30;0.20;;;;;;;18.57;39.13;99334.41;4991702;28;96929;-73
2023/03/08 10:40:22;;;;;;;0.28;0.20;;;;;;;18.55;39.10;99320.16;4993379;28;97141;-73
2023/03/08 10:42:56;;;;;;;0.47;0.30;;;;;;;18.56;39.45;99313.69;4994726;28;96742;-74
2023/03/08 10:45:24;;;;;;;0.38;0.22;;;;;;;18.58;38.94;99310.78;4981589;28;97996;-74
2023/03/08 10:48:02;;;;;;;0.30;0.20;;;;;;;18.59;39.03;99293.47;4991861;28;99502;-73
2023/03/08 10:50:31;;;;;;;0.55;0.30;;;;;;;18.55;39.23;99290.25;4996282;28;96674;-73
2023/03/08 10:53:18;;;;;;;0.95;0.20;;;;;;;18.54;39.22;99285.88;4995183;28;96947;-73
2023/03/08 10:55:47;;;;;;;0.28;0.20;;;;;;;18.55;38.99;99286.72;4993210;28;97772;-75
2023/03/08 10:58:33;;;;;;;0.40;0.30;;;;;;;18.57;39.44;99292.78;4981633;28;97404;-73
2023/03/08 11:01:06;;;;;;;0.20;0.20;;;;;;;18.56;39.08;99297.38;4990162;28;96784;-73
2023/03/08 11:03:33;;;;;;;0.38;0.30;;;;;;;18.56;38.88;99291.09;4986477;28;96831;-74
2023/03/08 11:06:12;;;;;;;0.30;0.20;;;;;;;18.54;39.12;99287.75;4990220;28;99809;-73
2023/03/08 11:08:51;;;;;;;0.30;0.30;;;;;;;18.54;39.26;99283.16;4987451;28;96877;-75
2023/03/08 11:11:17;;;;;;;0.22;0.20;;;;;;;18.55;39.19;99283.97;4992189;28;97144;-73
2023/03/08 11:13:46;;;;;;;0.30;0.30;;;;;;;18.52;38.97;99278.94;4992534;28;96824;-73
2023/03/08 11:16:31;;;;;;;0.20;0.20;;;;;;;18.52;39.28;99281.66;4986991;28;98388;-74
2023/03/08 11:19:17;;;;;;;0.40;0.40;;;;;;;18.53;39.10;99292.34;4986935;28;96797;-73
2023/03/08 11:22:02;;;;;;;0.40;0.30;;;;;;;18.51;39.04;99286.25;4988512;28;96913;-74
2023/03/08 11:24:34;;;;;;;;;;;;;;;18.54;39.20;99293.19;4981995;28;97117;-75
2023/03/08 11:27:23;;;;;;;0.40;0.30;;;;;;;18.51;39.02;99294.41;4991625;28;97785;-72
2023/03/08 11:30:01;;;;;;;0.30;0.20;;;;;;;18.50;39.32;99300.06;4969780;28;99253;-73
2023/03/08 11:32:41;;;;;;;0.32;0.30;;;;;;;18.53;39.33;99299.66;4993831;28;96715;-73
2023/03/08 11:35:23;;;;;;;0.30;0.30;;;;;;;18.51;39.10;99293.56;4988010;28;97878;-74
2023/03/08 11:37:55;;;;;;;0.30;0.28;;;;;;;18.49;39.11;99296.50;4989747;28;97094;-75
2023/03/08 11:40:21;;;;;;;0.40;0.30;;;;;;;18.49;39.24;99292.94;4992734;28;96610;-74
2023/03/08 11:42:51;;;;;;;0.40;0.40;;;;;;;18.49;39.18;99285.63;4993004;28;96659;-74
2023/03/08 11:45:28;;;;;;;0.30;0.20;;;;;;;18.51;39.50;99282.69;4991371;28;97505;-73
2023/03/08 11:48:09;;;;;;;0.55;0.30;;;;;;;18.53;39.36;99286.91;4991164;28;98893;-73